SCCY/GXQ METAR and TAF weather

Enter ICAO airport designator
Station Type Date Time Source
SCCY METAR 2022/09/26 10:00 UTC NOAA

SCCY 261000Z AUTO VRB06G18KT 9999 -RA SCT049 07/01 Q1003


Station Type Date Time Source
SCCY Decoded METAR 2022/09/26 10:00 UTC NOAA

Coyhaique, Chile (SCCY) 45-35S 072-07W
Sep 26, 2022 - 06:00 AM EDT / 2022.09.26 1000 UTC
Wind: Variable at 7 MPH (6 KT) gusting to 21 MPH (18 KT):0
Visibility: greater than 7 mile(s):0
Sky conditions: partly cloudy
Weather: light rain
Temperature: 44 F (7 C)
Dew Point: 33 F (1 C)
Relative Humidity: 65%
Pressure (altimeter): 29.62 in. Hg (1003 hPa)
ob: SCCY 261000Z AUTO VRB06G18KT 9999 -RA SCT049 07/01 Q1003
cycle: 10

Station Type Date Time Source
SCCY TAF 2022/09/25 12:33 UTC NOAA

TAF SCCY 251053Z 2512/2524 VRB02KT CAVOK TN06/2513Z TX13/2518Z
BECMG 2516/2518 33005KT BKN040
BECMG 2522/2524 9000 -RA SCT020 BKN030

Example: see airport list